createdAt,value
2022-10-27T00:02:03.343Z,18.52
2022-10-27T00:05:05.872Z,20.70
2022-10-27T00:08:08.435Z,18.73
2022-10-27T00:11:11.036Z,18.08
2022-10-27T00:14:13.544Z,17.90
2022-10-27T00:17:15.958Z,16.98
2022-10-27T00:20:18.468Z,17.23
2022-10-27T00:23:20.781Z,18.10
2022-10-27T00:26:23.285Z,17.60
2022-10-27T00:29:25.745Z,17.23
2022-10-27T00:32:28.176Z,16.48
2022-10-27T00:35:30.549Z,17.92
2022-10-27T00:38:33.638Z,17.33
2022-10-27T00:41:40.946Z,18.27
2022-10-27T00:44:47.651Z,18.27
2022-10-27T00:47:50.313Z,18.90
2022-10-27T00:50:53.631Z,18.35
2022-10-27T00:53:56.506Z,18.40
2022-10-27T00:56:59.271Z,18.08
2022-10-27T01:00:03.859Z,19.30
2022-10-27T01:03:08.753Z,18.50
2022-10-27T01:06:12.630Z,17.35
2022-10-27T01:09:15.055Z,18.53
2022-10-27T01:12:17.527Z,17.67
2022-10-27T01:15:22.512Z,18.08
2022-10-27T01:18:34.470Z,17.65
2022-10-27T01:22:02.859Z,19.90
2022-10-27T01:25:39.131Z,17.70
2022-10-27T01:28:54.547Z,16.77
2022-10-27T01:32:34.809Z,17.02
2022-10-27T01:35:43.175Z,18.70
2022-10-27T01:38:58.937Z,17.75
2022-10-27T01:42:04.783Z,18.30
2022-10-27T01:45:11.566Z,18.55
2022-10-27T01:48:15.559Z,19.98
2022-10-27T01:51:18.113Z,26.67
2022-10-27T01:54:21.363Z,21.42
2022-10-27T01:57:52.828Z,19.00
2022-10-27T02:01:24.523Z,18.88
2022-10-27T02:04:35.983Z,18.75
2022-10-27T02:08:01.917Z,19.75
2022-10-27T02:11:06.378Z,19.73
2022-10-27T02:14:09.580Z,20.47
2022-10-27T02:17:13.967Z,19.38
2022-10-27T02:20:23.388Z,19.92
2022-10-27T02:23:26.038Z,18.23
2022-10-27T02:26:38.913Z,19.17
2022-10-27T02:29:48.439Z,18.13
2022-10-27T02:32:51.727Z,17.88
2022-10-27T02:35:56.053Z,17.95
2022-10-27T02:38:58.450Z,17.25
2022-10-27T02:42:02.632Z,16.67
2022-10-27T02:45:05.363Z,17.10
2022-10-27T02:48:07.696Z,15.90
2022-10-27T02:51:10.155Z,16.80
2022-10-27T02:54:12.524Z,17.23
2022-10-27T02:57:16.699Z,17.30
2022-10-27T03:00:19.209Z,16.90
2022-10-27T03:03:22.776Z,17.60
2022-10-27T03:06:25.238Z,17.45
2022-10-27T03:09:27.920Z,17.48
2022-10-27T03:12:30.260Z,18.02
2022-10-27T03:15:34.559Z,16.97
2022-10-27T03:18:36.956Z,16.77
2022-10-27T03:21:39.310Z,16.55
2022-10-27T03:24:41.723Z,16.85
2022-10-27T03:27:45.191Z,16.20
2022-10-27T03:30:47.602Z,16.50
2022-10-27T03:33:51.650Z,16.55
2022-10-27T03:36:54.023Z,16.25
2022-10-27T03:39:56.483Z,14.43
2022-10-27T03:42:59.187Z,15.18
2022-10-27T03:46:01.697Z,16.13
2022-10-27T03:49:04.415Z,16.20
2022-10-27T03:52:06.955Z,15.95
2022-10-27T03:55:09.457Z,16.40
2022-10-27T03:58:16.531Z,16.50
2022-10-27T04:01:19.702Z,16.17
2022-10-27T04:04:22.091Z,16.55
2022-10-27T04:07:24.455Z,16.52
2022-10-27T04:10:27.213Z,16.40
2022-10-27T04:13:30.860Z,16.67
2022-10-27T04:16:33.496Z,16.10
2022-10-27T04:19:35.873Z,16.48
2022-10-27T04:22:39.387Z,16.15
2022-10-27T04:25:41.720Z,16.73
2022-10-27T04:28:44.258Z,16.45
2022-10-27T04:31:46.645Z,16.33
2022-10-27T04:34:49.023Z,16.17
2022-10-27T04:37:51.783Z,15.98
2022-10-27T04:40:54.322Z,15.88
2022-10-27T04:43:56.680Z,16.25
2022-10-27T04:46:59.019Z,17.07
2022-10-27T04:50:01.409Z,16.65
2022-10-27T04:53:04.150Z,18.40
2022-10-27T04:56:06.863Z,29.77
2022-10-27T04:59:09.328Z,26.55
2022-10-27T05:02:11.822Z,49.57
2022-10-27T05:05:14.545Z,25.95
2022-10-27T05:08:16.891Z,26.55
2022-10-27T05:11:19.273Z,33.13
2022-10-27T05:14:22.204Z,28.52
2022-10-27T05:17:24.649Z,25.40
2022-10-27T05:20:27.462Z,19.65
2022-10-27T05:23:29.916Z,18.08
2022-10-27T05:26:35.530Z,18.48
2022-10-27T05:29:40.928Z,17.48
2022-10-27T05:32:45.058Z,17.30
2022-10-27T05:35:50.966Z,16.98
2022-10-27T05:38:53.563Z,16.92
2022-10-27T05:41:56.084Z,16.92
2022-10-27T05:44:58.512Z,17.40
2022-10-27T05:48:06.794Z,17.37
2022-10-27T05:51:09.204Z,16.08
2022-10-27T05:54:11.710Z,15.70
2022-10-27T05:57:14.077Z,16.58
2022-10-27T06:00:18.720Z,14.50
2022-10-27T06:03:25.367Z,17.80
2022-10-27T06:06:28.025Z,17.30
2022-10-27T06:09:30.415Z,16.05
2022-10-27T06:12:32.931Z,16.52
2022-10-27T06:15:35.453Z,17.00
2022-10-27T06:18:37.926Z,17.33
2022-10-27T06:21:40.356Z,17.45
2022-10-27T06:24:42.807Z,19.63
2022-10-27T06:27:45.473Z,20.35
2022-10-27T06:30:48.010Z,18.17
2022-10-27T06:33:50.382Z,15.47
2022-10-27T06:36:52.960Z,16.45
2022-10-27T06:39:55.820Z,17.02
2022-10-27T06:43:07.180Z,16.60
2022-10-27T06:46:10.211Z,16.52
2022-10-27T06:49:15.404Z,16.43
2022-10-27T06:52:20.072Z,14.98
2022-10-27T06:55:22.584Z,13.90
2022-10-27T06:58:25.063Z,15.32
2022-10-27T07:01:28.738Z,13.60
2022-10-27T07:04:31.258Z,18.80
2022-10-27T07:07:33.757Z,12.48
2022-10-27T07:10:37.723Z,12.38
2022-10-27T07:13:40.235Z,13.32
2022-10-27T07:16:42.641Z,13.18
2022-10-27T07:19:44.954Z,12.60
2022-10-27T07:22:47.537Z,12.80
2022-10-27T07:25:50.837Z,12.45
2022-10-27T07:28:53.572Z,13.43
2022-10-27T07:31:56.186Z,12.35
2022-10-27T07:34:58.665Z,11.83
2022-10-27T07:38:01.360Z,11.32
2022-10-27T07:41:03.752Z,12.65
2022-10-27T07:44:06.088Z,12.15
2022-10-27T07:47:08.442Z,12.00
2022-10-27T07:50:11.273Z,12.40
2022-10-27T07:53:17.941Z,11.50
2022-10-27T07:56:20.297Z,12.10
2022-10-27T07:59:22.643Z,12.35
2022-10-27T08:02:25.230Z,12.02
2022-10-27T08:05:30.009Z,11.83
2022-10-27T08:08:33.369Z,12.00
2022-10-27T08:11:35.823Z,12.27
2022-10-27T08:14:38.283Z,11.30
2022-10-27T08:17:40.871Z,12.93
2022-10-27T08:21:17.428Z,11.67
2022-10-27T08:24:19.909Z,11.15
2022-10-27T08:27:22.402Z,11.95
2022-10-27T08:30:27.587Z,11.55
2022-10-27T08:33:30.060Z,12.38
2022-10-27T08:36:38.998Z,11.37
2022-10-27T08:39:41.402Z,11.05
2022-10-27T08:42:59.256Z,11.82
2022-10-27T08:46:15.242Z,11.63
2022-10-27T08:49:51.528Z,10.60
2022-10-27T08:53:04.953Z,10.77
2022-10-27T08:56:11.889Z,10.80
2022-10-27T08:59:24.389Z,10.75
2022-10-27T09:02:39.126Z,11.30
2022-10-27T09:05:50.827Z,10.75
2022-10-27T09:09:12.020Z,10.17
2022-10-27T09:12:44.377Z,10.38
2022-10-27T09:15:49.649Z,10.95
2022-10-27T09:18:56.021Z,11.38
2022-10-27T09:22:02.957Z,11.15
2022-10-27T09:25:12.811Z,11.43
2022-10-27T09:28:52.204Z,12.10
2022-10-27T09:32:05.253Z,11.77
2022-10-27T09:35:16.357Z,11.32
2022-10-27T09:38:26.019Z,11.90
2022-10-27T09:41:28.523Z,12.93
2022-10-27T09:44:31.265Z,12.60
2022-10-27T09:47:38.819Z,11.75
2022-10-27T09:50:49.790Z,10.77
2022-10-27T09:54:05.792Z,11.65
2022-10-27T09:57:18.927Z,11.47
2022-10-27T10:00:22.031Z,11.73
2022-10-27T10:03:25.057Z,11.35
2022-10-27T10:06:38.789Z,11.32
2022-10-27T10:09:41.516Z,11.70
2022-10-27T10:12:44.105Z,11.67
2022-10-27T10:15:46.939Z,12.05
2022-10-27T10:19:24.663Z,12.15
2022-10-27T10:22:30.408Z,11.57
2022-10-27T10:25:34.070Z,12.10
2022-10-27T10:28:42.358Z,11.13
2022-10-27T10:31:45.448Z,10.93
2022-10-27T10:34:48.508Z,11.85
2022-10-27T10:37:51.369Z,10.95
2022-10-27T10:41:17.102Z,11.35
2022-10-27T10:44:19.665Z,11.93
2022-10-27T10:47:29.186Z,11.45
2022-10-27T10:50:42.308Z,11.57
2022-10-27T10:53:53.290Z,11.45
2022-10-27T10:56:56.122Z,10.52
2022-10-27T10:59:58.950Z,12.73
2022-10-27T11:03:05.565Z,11.85
2022-10-27T11:06:17.585Z,11.68
2022-10-27T11:09:20.552Z,11.05
2022-10-27T11:12:29.674Z,11.18
2022-10-27T11:15:44.379Z,11.40
2022-10-27T11:18:55.909Z,10.98
2022-10-27T11:22:06.135Z,10.85
2022-10-27T11:25:18.656Z,11.82
2022-10-27T11:28:29.409Z,11.60
2022-10-27T11:31:42.404Z,10.87
2022-10-27T11:35:07.560Z,11.25
2022-10-27T11:38:30.794Z,11.43
2022-10-27T11:41:42.256Z,11.25
2022-10-27T11:45:02.837Z,11.00
2022-10-27T11:48:24.384Z,11.20
2022-10-27T11:51:37.220Z,11.77
2022-10-27T11:54:40.183Z,12.93
2022-10-27T11:57:56.596Z,12.82
2022-10-27T12:01:30.491Z,11.13
2022-10-27T12:04:48.070Z,11.50
2022-10-27T12:07:53.689Z,27.67
2022-10-27T12:11:19.059Z,22.02
2022-10-27T12:14:50.498Z,13.18
2022-10-27T12:18:06.013Z,12.82
2022-10-27T12:21:25.485Z,11.90
2022-10-27T12:24:34.096Z,11.95
2022-10-27T12:27:41.407Z,11.05
2022-10-27T12:30:47.419Z,11.50
2022-10-27T12:33:55.971Z,12.13
2022-10-27T12:37:23.380Z,11.37
2022-10-27T12:40:39.358Z,11.90
2022-10-27T12:44:05.890Z,11.75
2022-10-27T12:47:43.280Z,11.50
2022-10-27T12:51:14.809Z,11.45
2022-10-27T12:55:01.626Z,10.90
2022-10-27T12:58:14.161Z,11.25
2022-10-27T13:01:28.949Z,11.30
2022-10-27T13:05:11.886Z,11.63
2022-10-27T13:08:14.252Z,11.13
2022-10-27T13:11:32.831Z,11.30
2022-10-27T13:14:35.146Z,11.00
2022-10-27T13:18:22.505Z,10.65
2022-10-27T13:21:34.096Z,11.35
2022-10-27T13:24:54.869Z,11.40
2022-10-27T13:28:17.150Z,11.53
2022-10-27T13:31:24.563Z,11.15
2022-10-27T13:34:27.001Z,10.88
2022-10-27T13:37:41.370Z,12.10
2022-10-27T13:40:43.888Z,11.90
2022-10-27T13:43:48.087Z,12.40
2022-10-27T13:47:04.503Z,11.82
2022-10-27T13:50:33.837Z,12.13
2022-10-27T13:53:36.164Z,12.13
2022-10-27T13:56:39.898Z,11.65
2022-10-27T13:59:45.303Z,11.83
2022-10-27T14:03:06.090Z,11.95
2022-10-27T14:06:08.394Z,13.15
2022-10-27T14:09:35.776Z,13.98
2022-10-27T14:12:38.268Z,14.23
2022-10-27T14:15:40.792Z,13.03
2022-10-27T14:18:43.356Z,12.75
2022-10-27T14:21:47.587Z,12.38
2022-10-27T14:24:56.984Z,12.45
2022-10-27T14:28:20.497Z,14.05
2022-10-27T14:31:26.452Z,10.70
2022-10-27T14:34:28.822Z,12.63
2022-10-27T14:37:35.278Z,12.73
2022-10-27T14:40:39.385Z,12.77
2022-10-27T14:43:44.633Z,13.55
2022-10-27T14:46:49.314Z,13.27
2022-10-27T14:49:55.893Z,13.07
2022-10-27T14:53:00.823Z,12.40
2022-10-27T14:56:06.515Z,11.82
2022-10-27T14:59:19.591Z,11.93
2022-10-27T15:02:23.054Z,12.03
2022-10-27T15:05:31.942Z,12.02
2022-10-27T15:08:35.499Z,12.10
2022-10-27T15:11:37.970Z,14.82
2022-10-27T15:14:40.461Z,12.65
2022-10-27T15:17:42.989Z,14.67
2022-10-27T15:20:45.697Z,15.00
2022-10-27T15:23:51.106Z,17.92
2022-10-27T15:26:54.392Z,21.75
2022-10-27T15:29:57.243Z,21.05
2022-10-27T15:32:59.921Z,14.97
2022-10-27T15:36:18.991Z,17.08
2022-10-27T15:39:21.478Z,21.20
2022-10-27T15:42:35.928Z,14.93
2022-10-27T15:45:45.759Z,18.38
2022-10-27T15:49:14.812Z,17.03
2022-10-27T15:52:22.557Z,23.20
2022-10-27T15:55:27.408Z,25.08
2022-10-27T15:58:38.560Z,24.27
2022-10-27T16:01:43.577Z,29.67
2022-10-27T16:04:49.661Z,26.97
2022-10-27T16:07:52.561Z,20.42
2022-10-27T16:10:55.177Z,21.65
2022-10-27T16:13:59.788Z,17.95
2022-10-27T16:17:02.130Z,19.75
2022-10-27T16:20:10.862Z,19.10
2022-10-27T16:23:15.662Z,23.42
2022-10-27T16:26:21.299Z,19.10
2022-10-27T16:29:27.342Z,22.02
2022-10-27T16:32:32.459Z,21.75
2022-10-27T16:35:34.820Z,22.33
2022-10-27T16:38:37.156Z,23.00
2022-10-27T16:41:39.590Z,19.40
2022-10-27T16:44:42.195Z,20.75
2022-10-27T16:47:48.721Z,26.05
2022-10-27T16:50:51.115Z,17.67
2022-10-27T16:53:53.567Z,17.38
2022-10-27T16:56:56.137Z,17.70
2022-10-27T16:59:58.514Z,16.88
2022-10-27T17:03:01.096Z,17.00
2022-10-27T17:06:04.557Z,15.87
2022-10-27T17:09:08.331Z,15.95
2022-10-27T17:12:10.743Z,14.75
2022-10-27T17:15:13.297Z,13.63
2022-10-27T17:18:15.871Z,14.10
2022-10-27T17:21:18.441Z,16.33
2022-10-27T17:24:20.962Z,16.70
2022-10-27T17:27:23.421Z,17.67
2022-10-27T17:30:25.844Z,14.80
2022-10-27T17:33:28.525Z,15.13
2022-10-27T17:36:31.025Z,15.40
2022-10-27T17:39:33.502Z,15.77
2022-10-27T17:42:36.184Z,16.55
2022-10-27T17:45:38.782Z,15.43
2022-10-27T17:48:47.024Z,16.55
2022-10-27T17:51:49.663Z,15.17
2022-10-27T17:54:52.095Z,15.65
2022-10-27T17:57:54.993Z,16.67
2022-10-27T18:01:11.711Z,14.80
2022-10-27T18:04:14.454Z,15.57
2022-10-27T18:07:17.392Z,15.67
2022-10-27T18:10:19.929Z,17.25
2022-10-27T18:13:22.475Z,15.45
2022-10-27T18:16:27.585Z,14.55
2022-10-27T18:19:30.205Z,15.20
2022-10-27T18:22:32.814Z,15.37
2022-10-27T18:25:35.405Z,13.65
2022-10-27T18:31:45.602Z,14.55
2022-10-27T18:34:48.151Z,14.95
2022-10-27T18:37:50.823Z,13.73
2022-10-27T18:40:57.311Z,15.35
2022-10-27T18:43:59.885Z,15.63
2022-10-27T18:47:02.298Z,14.85
2022-10-27T18:50:08.093Z,15.50
2022-10-27T18:53:12.997Z,15.10
2022-10-27T18:56:15.673Z,18.45
2022-10-27T18:59:18.394Z,16.13
2022-10-27T19:02:21.548Z,14.80
2022-10-27T19:05:24.251Z,13.40
2022-10-27T19:08:27.125Z,13.80
2022-10-27T19:11:30.964Z,15.65
2022-10-27T19:14:33.354Z,16.20
2022-10-27T19:17:35.891Z,15.43
2022-10-27T19:20:41.611Z,15.80
2022-10-27T19:23:45.641Z,15.43
2022-10-27T19:26:48.179Z,15.00
2022-10-27T19:29:50.619Z,16.58
2022-10-27T19:32:53.464Z,14.80
2022-10-27T19:36:01.656Z,16.38
2022-10-27T19:39:08.464Z,16.73
2022-10-27T19:42:11.152Z,17.02
2022-10-27T19:45:13.822Z,17.30
2022-10-27T19:48:17.386Z,15.77
2022-10-27T19:51:22.771Z,16.33
2022-10-27T19:54:25.336Z,15.83
2022-10-27T19:57:27.855Z,15.25
2022-10-27T20:00:30.611Z,16.95
2022-10-27T20:03:33.593Z,16.30
2022-10-27T20:06:36.516Z,16.77
2022-10-27T20:09:39.058Z,17.37
2022-10-27T20:12:41.537Z,15.43
2022-10-27T20:15:43.938Z,17.35
2022-10-27T20:18:46.769Z,17.70
2022-10-27T20:21:49.802Z,17.83
2022-10-27T20:24:55.083Z,18.97
2022-10-27T20:27:57.695Z,18.80
2022-10-27T20:31:05.147Z,17.95
2022-10-27T20:34:10.421Z,18.95
2022-10-27T20:37:12.878Z,19.13
2022-10-27T20:40:15.350Z,18.50
2022-10-27T20:43:17.721Z,18.55
2022-10-27T20:46:20.893Z,17.75
2022-10-27T20:49:23.338Z,18.67
2022-10-27T20:52:25.712Z,17.52
2022-10-27T20:55:28.018Z,17.03
2022-10-27T20:58:31.148Z,16.45
2022-10-27T21:01:35.107Z,18.58
2022-10-27T21:04:37.659Z,19.30
2022-10-27T21:07:40.093Z,18.13
2022-10-27T21:10:42.482Z,18.07
2022-10-27T21:13:49.239Z,17.60
2022-10-27T21:16:52.262Z,18.85
2022-10-27T21:19:54.731Z,18.48
2022-10-27T21:22:57.325Z,19.65
2022-10-27T21:26:02.611Z,21.77
2022-10-27T21:29:05.084Z,20.17
2022-10-27T21:32:07.464Z,19.38
2022-10-27T21:35:09.946Z,18.83
2022-10-27T21:38:12.324Z,19.88
2022-10-27T21:41:16.400Z,19.33
2022-10-27T21:44:19.096Z,20.52
2022-10-27T21:47:21.448Z,21.20
2022-10-27T21:50:24.228Z,20.45
2022-10-27T21:53:26.984Z,21.17
2022-10-27T21:56:31.335Z,21.00
2022-10-27T21:59:33.729Z,19.88
2022-10-27T22:02:36.107Z,21.75
2022-10-27T22:05:38.480Z,22.08
2022-10-27T22:08:40.844Z,21.30
2022-10-27T22:11:43.282Z,21.13
2022-10-27T22:14:45.620Z,20.33
2022-10-27T22:17:47.993Z,20.48
2022-10-27T22:20:50.355Z,20.33
2022-10-27T22:23:53.123Z,19.42
2022-10-27T22:26:55.515Z,20.67
2022-10-27T22:29:57.943Z,18.10
2022-10-27T22:33:01.037Z,20.15
2022-10-27T22:36:08.666Z,20.15
2022-10-27T22:39:12.676Z,20.25
2022-10-27T22:42:15.051Z,18.27
2022-10-27T22:45:17.409Z,20.45
2022-10-27T22:48:21.302Z,20.45
2022-10-27T22:51:25.819Z,21.35
2022-10-27T22:54:28.131Z,21.83
2022-10-27T22:57:30.598Z,21.30
2022-10-27T23:00:33.397Z,18.00
2022-10-27T23:03:36.328Z,17.50
2022-10-27T23:06:39.048Z,16.95
2022-10-27T23:09:41.820Z,17.45
2022-10-27T23:12:44.147Z,18.27
2022-10-27T23:15:54.644Z,28.45
2022-10-27T23:19:00.787Z,36.20
2022-10-27T23:22:03.203Z,35.28
2022-10-27T23:25:06.431Z,30.25
2022-10-27T23:28:08.849Z,24.70
2022-10-27T23:31:11.214Z,27.33
2022-10-27T23:34:13.763Z,32.28
2022-10-27T23:37:16.125Z,30.50
2022-10-27T23:40:18.582Z,35.65
2022-10-27T23:43:21.418Z,27.53
2022-10-27T23:46:25.458Z,25.50
2022-10-27T23:49:27.805Z,21.55
2022-10-27T23:52:30.489Z,20.70
2022-10-27T23:55:32.811Z,19.80
2022-10-27T23:58:37.360Z,20.23
